createdAt,value
2023-02-19T00:01:53.481Z,3.33
2023-02-19T00:04:39.946Z,3.34
2023-02-19T00:07:26.521Z,3.37
2023-02-19T00:10:13.086Z,3.36
2023-02-19T00:12:59.517Z,3.38
2023-02-19T00:15:46.180Z,3.37
2023-02-19T00:18:32.432Z,3.40
2023-02-19T00:21:19.227Z,3.39
2023-02-19T00:24:07.305Z,3.39
2023-02-19T00:26:53.913Z,3.42
2023-02-19T00:29:40.070Z,3.44
2023-02-19T00:32:26.796Z,3.44
2023-02-19T00:35:13.578Z,3.47
2023-02-19T00:38:00.269Z,3.48
2023-02-19T00:40:46.946Z,3.50
2023-02-19T00:43:35.901Z,3.45
2023-02-19T00:46:35.397Z,3.45
2023-02-19T00:49:23.448Z,3.46
2023-02-19T00:52:10.395Z,3.49
2023-02-19T00:54:56.658Z,3.51
2023-02-19T00:57:43.463Z,3.54
2023-02-19T01:00:30.264Z,3.55
2023-02-19T01:03:16.795Z,3.53
2023-02-19T01:06:05.183Z,3.56
2023-02-19T01:08:52.107Z,3.55
2023-02-19T01:11:39.063Z,3.59
2023-02-19T01:14:25.536Z,3.58
2023-02-19T01:17:12.184Z,3.63
2023-02-19T01:19:58.613Z,3.66
2023-02-19T01:22:45.233Z,3.70
2023-02-19T01:25:31.913Z,3.69
2023-02-19T01:28:18.848Z,3.67
2023-02-19T01:31:07.557Z,3.70
2023-02-19T01:33:59.656Z,3.71
2023-02-19T01:36:46.255Z,3.70
2023-02-19T01:39:33.100Z,3.72
2023-02-19T01:42:19.759Z,3.77
2023-02-19T01:45:33.899Z,3.79
2023-02-19T01:48:32.637Z,3.80
2023-02-19T01:51:21.126Z,3.82
2023-02-19T01:54:09.693Z,3.81
2023-02-19T01:56:57.454Z,3.78
2023-02-19T01:59:44.233Z,3.77
2023-02-19T02:02:30.802Z,3.78
2023-02-19T02:05:32.628Z,3.72
2023-02-19T02:08:38.758Z,3.73
2023-02-19T02:11:25.421Z,3.71
2023-02-19T02:14:12.492Z,3.74
2023-02-19T02:17:09.144Z,3.73
2023-02-19T02:19:55.463Z,3.71
2023-02-19T02:23:21.723Z,3.70
2023-02-19T02:26:52.518Z,3.70
2023-02-19T02:29:58.434Z,3.73
2023-02-19T02:33:08.983Z,3.72
2023-02-19T02:36:03.896Z,3.67
2023-02-19T02:38:54.064Z,3.66
2023-02-19T02:41:46.064Z,3.66
2023-02-19T02:44:37.150Z,3.63
2023-02-19T02:47:42.173Z,3.63
2023-02-19T02:50:43.879Z,3.62
2023-02-19T02:54:00.422Z,3.63
2023-02-19T02:56:50.032Z,3.57
2023-02-19T02:59:39.317Z,3.57
2023-02-19T03:02:30.579Z,3.57
2023-02-19T03:05:41.680Z,3.53
2023-02-19T03:08:45.305Z,3.57
2023-02-19T03:11:52.003Z,3.55
2023-02-19T03:15:02.787Z,3.54
2023-02-19T03:18:11.361Z,3.50
2023-02-19T03:20:59.388Z,3.50
2023-02-19T03:24:06.596Z,3.46
2023-02-19T03:26:54.049Z,3.45
2023-02-19T03:29:43.303Z,3.48
2023-02-19T03:32:50.234Z,3.47
2023-02-19T03:35:41.773Z,3.37
2023-02-19T03:38:37.189Z,3.36
2023-02-19T03:41:44.376Z,3.39
2023-02-19T03:44:57.652Z,3.30
2023-02-19T03:48:23.036Z,3.30
2023-02-19T03:51:24.813Z,3.25
2023-02-19T03:54:32.741Z,3.20
2023-02-19T03:57:25.074Z,3.13
2023-02-19T04:00:21.467Z,3.14
2023-02-19T04:03:31.478Z,3.18
2023-02-19T04:06:29.283Z,3.17
2023-02-19T04:09:17.388Z,3.16
2023-02-19T04:12:05.739Z,3.15
2023-02-19T04:15:00.742Z,3.12
2023-02-19T04:17:50.272Z,2.98
2023-02-19T04:20:42.239Z,3.00
2023-02-19T04:23:33.230Z,2.95
2023-02-19T04:26:22.796Z,2.88
2023-02-19T04:29:09.296Z,2.85
2023-02-19T04:31:56.268Z,2.82
2023-02-19T04:34:42.600Z,2.79
2023-02-19T04:37:29.422Z,2.77
2023-02-19T04:40:16.167Z,2.80
2023-02-19T04:43:03.732Z,2.76
2023-02-19T04:45:50.210Z,2.74
2023-02-19T04:48:38.949Z,2.72
2023-02-19T04:51:25.586Z,2.71
2023-02-19T04:54:12.256Z,2.71
2023-02-19T04:56:58.968Z,2.72
2023-02-19T04:59:47.079Z,2.73
2023-02-19T05:02:33.833Z,2.76
2023-02-19T05:05:20.350Z,2.74
2023-02-19T05:08:07.170Z,2.75
2023-02-19T05:10:58.976Z,2.76
2023-02-19T05:13:45.246Z,2.76
2023-02-19T05:16:33.150Z,2.76
2023-02-19T05:19:19.586Z,2.78
2023-02-19T05:22:06.108Z,2.78
2023-02-19T05:24:52.713Z,2.76
2023-02-19T05:27:40.121Z,2.74
2023-02-19T05:30:26.684Z,2.76
2023-02-19T05:33:14.415Z,2.77
2023-02-19T05:36:06.417Z,2.79
2023-02-19T05:38:57.036Z,2.82
2023-02-19T05:41:45.666Z,2.78
2023-02-19T05:44:32.470Z,2.76
2023-02-19T05:47:19.197Z,2.77
2023-02-19T05:50:07.401Z,2.78
2023-02-19T05:52:54.021Z,2.77
2023-02-19T05:55:40.649Z,2.75
2023-02-19T05:58:28.018Z,2.80
2023-02-19T06:01:16.746Z,2.77
2023-02-19T06:04:03.496Z,2.79
2023-02-19T06:06:50.473Z,2.77
2023-02-19T06:09:36.909Z,2.79
2023-02-19T06:12:24.079Z,2.84
2023-02-19T06:15:10.489Z,2.83
2023-02-19T06:17:57.004Z,2.84
2023-02-19T06:20:43.830Z,2.84
2023-02-19T06:23:32.808Z,2.85
2023-02-19T06:26:22.129Z,2.89
2023-02-19T06:29:08.555Z,2.90
2023-02-19T06:31:55.498Z,2.93
2023-02-19T06:34:41.929Z,3.01
2023-02-19T06:37:29.242Z,2.97
2023-02-19T06:40:16.295Z,2.97
2023-02-19T06:43:02.961Z,3.02
2023-02-19T06:45:49.597Z,3.04
2023-02-19T06:48:36.346Z,3.09
2023-02-19T06:51:24.286Z,3.19
2023-02-19T06:54:10.804Z,3.22
2023-02-19T06:56:59.173Z,3.24
2023-02-19T06:59:46.695Z,3.16
2023-02-19T07:02:33.433Z,3.16
2023-02-19T07:05:20.950Z,3.23
2023-02-19T07:08:07.597Z,3.29
2023-02-19T07:10:56.579Z,3.17
2023-02-19T07:13:42.835Z,3.17
2023-02-19T07:16:29.833Z,3.10
2023-02-19T07:19:16.333Z,3.03
2023-02-19T07:22:02.952Z,3.09
2023-02-19T07:24:49.693Z,3.12
2023-02-19T07:27:36.398Z,3.19
2023-02-19T07:30:22.913Z,3.19
2023-02-19T07:33:10.874Z,3.22
2023-02-19T07:35:57.234Z,3.23
2023-02-19T07:38:47.207Z,3.21
2023-02-19T07:41:34.228Z,3.30
2023-02-19T07:44:20.795Z,3.30
2023-02-19T07:47:08.277Z,3.27
2023-02-19T07:49:54.885Z,3.31
2023-02-19T07:52:41.758Z,3.43
2023-02-19T07:55:28.378Z,3.50
2023-02-19T07:58:15.246Z,3.50
2023-02-19T08:01:11.579Z,3.64
2023-02-19T08:03:58.714Z,3.81
2023-02-19T08:06:45.515Z,3.87
2023-02-19T08:09:32.306Z,3.89
2023-02-19T08:12:37.570Z,4.00
2023-02-19T08:15:24.061Z,3.97
2023-02-19T08:18:14.105Z,3.96
2023-02-19T08:21:00.890Z,4.00
2023-02-19T08:23:50.603Z,4.00
2023-02-19T08:26:37.612Z,4.04
2023-02-19T08:29:23.993Z,4.07
2023-02-19T08:32:10.418Z,4.14
2023-02-19T08:34:57.128Z,4.11
2023-02-19T08:37:43.930Z,4.09
2023-02-19T08:40:30.927Z,4.12
2023-02-19T08:43:17.719Z,4.20
2023-02-19T08:46:04.673Z,4.20
2023-02-19T08:48:51.454Z,4.20
2023-02-19T08:51:37.896Z,4.16
2023-02-19T08:54:24.795Z,4.17
2023-02-19T08:57:11.320Z,4.19
2023-02-19T09:00:01.190Z,4.18
2023-02-19T09:02:49.031Z,4.26
2023-02-19T09:05:35.801Z,4.34
2023-02-19T09:08:22.339Z,4.35
2023-02-19T09:11:08.928Z,4.39
2023-02-19T09:13:56.758Z,4.29
2023-02-19T09:16:53.628Z,4.17
2023-02-19T09:19:40.267Z,4.17
2023-02-19T09:22:27.000Z,4.21
2023-02-19T09:25:13.563Z,4.23
2023-02-19T09:28:00.290Z,4.31
2023-02-19T09:30:46.542Z,4.45
2023-02-19T09:33:33.417Z,4.65
2023-02-19T09:36:20.107Z,4.69
2023-02-19T09:39:08.997Z,4.68
2023-02-19T09:42:04.215Z,4.71
2023-02-19T09:44:54.202Z,4.73
2023-02-19T09:47:40.488Z,4.78
2023-02-19T09:50:34.467Z,4.82
2023-02-19T09:53:27.328Z,4.94
2023-02-19T09:56:14.016Z,4.97
2023-02-19T09:59:02.077Z,5.04
2023-02-19T10:01:53.455Z,5.25
2023-02-19T10:04:42.365Z,5.53
2023-02-19T10:07:39.401Z,5.99
2023-02-19T10:10:33.089Z,6.51
2023-02-19T10:13:29.658Z,6.97
2023-02-19T10:16:22.504Z,7.23
2023-02-19T10:19:16.374Z,8.20
2023-02-19T10:22:03.726Z,8.97
2023-02-19T10:24:54.046Z,9.14
2023-02-19T10:27:41.101Z,8.74
2023-02-19T10:30:31.713Z,7.90
2023-02-19T10:33:19.394Z,7.66
2023-02-19T10:36:07.862Z,7.40
2023-02-19T10:38:55.097Z,7.21
2023-02-19T10:41:44.105Z,7.06
2023-02-19T10:44:45.492Z,6.89
2023-02-19T10:47:33.029Z,6.72
2023-02-19T10:50:39.293Z,6.79
2023-02-19T10:53:44.086Z,7.73
2023-02-19T10:56:31.507Z,8.41
2023-02-19T10:59:18.004Z,8.59
2023-02-19T11:02:17.330Z,8.69
2023-02-19T11:05:09.738Z,8.52
2023-02-19T11:07:57.219Z,8.20
2023-02-19T11:10:48.927Z,8.03
2023-02-19T11:13:38.063Z,8.02
2023-02-19T11:16:38.446Z,7.90
2023-02-19T11:19:31.562Z,7.66
2023-02-19T11:22:38.050Z,7.54
2023-02-19T11:25:25.847Z,7.30
2023-02-19T11:28:35.963Z,7.31
2023-02-19T11:31:31.988Z,7.18
2023-02-19T11:34:21.168Z,6.83
2023-02-19T11:38:03.794Z,6.72
2023-02-19T11:41:47.312Z,6.72
2023-02-19T11:45:03.847Z,6.48
2023-02-19T11:48:15.070Z,6.55
2023-02-19T11:51:28.550Z,6.50
2023-02-19T11:54:25.442Z,6.63
2023-02-19T11:57:48.560Z,7.12
2023-02-19T12:00:48.961Z,7.88
2023-02-19T12:04:25.024Z,8.75
2023-02-19T12:07:35.294Z,9.61
2023-02-19T12:10:43.102Z,10.05
2023-02-19T12:13:38.469Z,10.26
2023-02-19T12:16:41.441Z,9.88
2023-02-19T12:19:42.272Z,8.99
2023-02-19T12:22:44.283Z,9.26
2023-02-19T12:25:55.501Z,9.56
2023-02-19T12:29:00.930Z,8.84
2023-02-19T12:31:54.280Z,7.94
2023-02-19T12:35:19.731Z,7.66
2023-02-19T12:38:25.103Z,7.31
2023-02-19T12:41:30.513Z,7.07
2023-02-19T12:44:24.110Z,6.99
2023-02-19T12:47:29.875Z,6.85
2023-02-19T12:50:28.022Z,6.61
2023-02-19T12:53:15.155Z,6.42
2023-02-19T12:56:09.184Z,6.34
2023-02-19T12:59:17.923Z,6.58
2023-02-19T13:02:10.884Z,7.95
2023-02-19T13:05:23.709Z,9.45
2023-02-19T13:09:05.730Z,10.25
2023-02-19T13:12:16.733Z,11.12
2023-02-19T13:15:17.964Z,11.38
2023-02-19T13:18:12.985Z,11.43
2023-02-19T13:21:38.670Z,11.33
2023-02-19T13:24:44.915Z,11.86
2023-02-19T13:28:10.738Z,12.69
2023-02-19T13:31:25.664Z,12.83
2023-02-19T13:34:33.859Z,12.52
2023-02-19T13:37:21.791Z,12.17
2023-02-19T13:40:33.448Z,10.72
2023-02-19T13:43:37.059Z,9.83
2023-02-19T13:46:25.665Z,9.06
2023-02-19T13:49:31.648Z,8.40
2023-02-19T13:52:30.515Z,8.34
2023-02-19T13:55:52.056Z,8.00
2023-02-19T13:58:52.814Z,7.56
2023-02-19T14:01:51.521Z,7.09
2023-02-19T14:04:41.321Z,7.32
2023-02-19T14:07:27.898Z,8.47
2023-02-19T14:10:46.076Z,8.31
2023-02-19T14:13:51.541Z,7.74
2023-02-19T14:16:38.059Z,7.40
2023-02-19T14:19:42.990Z,7.05
2023-02-19T14:22:45.005Z,6.97
2023-02-19T14:25:45.567Z,6.91
2023-02-19T14:28:45.901Z,6.78
2023-02-19T14:31:36.556Z,6.58
2023-02-19T14:34:27.040Z,6.47
2023-02-19T14:37:19.789Z,6.42
2023-02-19T14:40:06.344Z,6.42
2023-02-19T14:42:57.266Z,6.35
2023-02-19T14:45:54.462Z,6.17
2023-02-19T14:48:46.782Z,6.13
2023-02-19T14:51:38.095Z,6.14
2023-02-19T14:54:38.530Z,6.05
2023-02-19T14:57:29.687Z,6.05
2023-02-19T15:00:28.958Z,5.99
2023-02-19T15:03:35.895Z,5.99
2023-02-19T15:06:24.430Z,5.94
2023-02-19T15:09:16.867Z,5.86
2023-02-19T15:12:04.040Z,5.84
2023-02-19T15:14:54.865Z,5.80
2023-02-19T15:17:41.813Z,5.82
2023-02-19T15:20:32.802Z,5.88
2023-02-19T15:23:25.284Z,5.86
2023-02-19T15:26:21.263Z,5.85
2023-02-19T15:29:16.969Z,5.85
2023-02-19T15:32:21.855Z,5.81
2023-02-19T15:35:19.923Z,5.78
2023-02-19T15:38:12.457Z,5.73
2023-02-19T15:40:59.303Z,5.70
2023-02-19T15:44:01.642Z,5.49
2023-02-19T15:46:48.730Z,5.35
2023-02-19T15:49:49.992Z,5.31
2023-02-19T15:52:45.854Z,5.19
2023-02-19T15:56:00.428Z,5.11
2023-02-19T15:59:12.858Z,5.04
2023-02-19T16:02:00.976Z,5.03
2023-02-19T16:04:47.327Z,5.05
2023-02-19T16:07:34.101Z,5.02
2023-02-19T16:10:24.589Z,4.98
2023-02-19T16:13:12.061Z,4.96
2023-02-19T16:16:16.056Z,4.88
2023-02-19T16:19:03.013Z,4.78
2023-02-19T16:21:49.663Z,4.75
2023-02-19T16:24:45.084Z,4.73
2023-02-19T16:27:38.505Z,4.69
2023-02-19T16:30:31.593Z,4.66
2023-02-19T16:33:36.661Z,4.60
2023-02-19T16:36:23.171Z,4.61
2023-02-19T16:39:09.792Z,4.53
2023-02-19T16:41:59.482Z,4.52
2023-02-19T16:44:46.853Z,4.50
2023-02-19T16:47:40.527Z,4.51
2023-02-19T16:50:29.192Z,4.53
2023-02-19T16:53:25.277Z,4.58
2023-02-19T16:56:18.634Z,4.62
2023-02-19T16:59:05.110Z,4.65
2023-02-19T17:01:51.861Z,4.67
2023-02-19T17:04:38.200Z,4.69
2023-02-19T17:07:26.530Z,4.73
2023-02-19T17:10:17.316Z,4.73
2023-02-19T17:13:05.019Z,4.79
2023-02-19T17:15:51.498Z,4.81
2023-02-19T17:18:38.024Z,4.81
2023-02-19T17:21:26.882Z,4.85
2023-02-19T17:24:14.055Z,4.85
2023-02-19T17:27:00.425Z,4.82
2023-02-19T17:29:46.834Z,4.77
2023-02-19T17:32:33.575Z,4.67
2023-02-19T17:35:20.171Z,4.57
2023-02-19T17:38:09.684Z,4.54
2023-02-19T17:40:56.368Z,4.50
2023-02-19T17:43:42.910Z,4.40
2023-02-19T17:46:29.597Z,4.35
2023-02-19T17:49:16.409Z,4.29
2023-02-19T17:52:05.520Z,4.34
2023-02-19T17:54:52.043Z,4.34
2023-02-19T17:57:38.675Z,4.35
2023-02-19T18:00:28.297Z,4.37
2023-02-19T18:03:14.509Z,4.34
2023-02-19T18:06:00.919Z,4.37
2023-02-19T18:08:52.703Z,4.31
2023-02-19T18:11:39.413Z,4.20
2023-02-19T18:14:45.819Z,4.18
2023-02-19T18:17:32.488Z,4.11
2023-02-19T18:20:28.164Z,4.04
2023-02-19T18:23:14.674Z,3.98
2023-02-19T18:26:01.577Z,3.92
2023-02-19T18:28:48.257Z,3.85
2023-02-19T18:31:37.459Z,3.75
2023-02-19T18:34:23.733Z,3.73
2023-02-19T18:37:10.473Z,3.74
2023-02-19T18:39:58.008Z,3.78
2023-02-19T18:42:44.457Z,3.73
2023-02-19T18:45:35.247Z,3.70
2023-02-19T18:48:21.499Z,3.70
2023-02-19T18:51:11.628Z,3.68
2023-02-19T18:54:01.731Z,3.59
2023-02-19T18:56:48.230Z,3.53
2023-02-19T18:59:35.844Z,3.44
2023-02-19T19:02:22.436Z,3.41
2023-02-19T19:05:09.206Z,3.43
2023-02-19T19:07:57.613Z,3.40
2023-02-19T19:10:44.285Z,3.32
2023-02-19T19:13:30.970Z,3.25
2023-02-19T19:16:18.666Z,3.26
2023-02-19T19:19:05.163Z,3.28
2023-02-19T19:21:53.486Z,3.28
2023-02-19T19:24:39.840Z,3.26
2023-02-19T19:27:25.996Z,3.26
2023-02-19T19:30:13.055Z,3.25
2023-02-19T19:33:01.594Z,3.24
2023-02-19T19:35:48.238Z,3.20
2023-02-19T19:38:34.925Z,3.18
2023-02-19T19:41:21.593Z,3.15
2023-02-19T19:44:09.446Z,3.09
2023-02-19T19:46:56.472Z,3.00
2023-02-19T19:49:46.107Z,2.99
2023-02-19T19:52:32.591Z,2.95
2023-02-19T19:55:21.665Z,2.95
2023-02-19T19:58:08.263Z,2.89
2023-02-19T20:00:54.967Z,2.87
2023-02-19T20:03:41.456Z,2.81
2023-02-19T20:06:30.900Z,2.80
2023-02-19T20:09:18.052Z,2.76
2023-02-19T20:12:04.952Z,2.70
2023-02-19T20:14:51.419Z,2.65
2023-02-19T20:17:38.514Z,2.61
2023-02-19T20:20:24.946Z,2.58
2023-02-19T20:23:11.594Z,2.59
2023-02-19T20:25:58.188Z,2.60
2023-02-19T20:28:47.648Z,2.52
2023-02-19T20:31:34.403Z,2.44
2023-02-19T20:34:23.573Z,2.43
2023-02-19T20:37:10.595Z,2.38
2023-02-19T20:39:56.633Z,2.34
2023-02-19T20:42:43.415Z,2.32
2023-02-19T20:45:30.931Z,2.30
2023-02-19T20:48:18.011Z,2.33
2023-02-19T20:51:05.435Z,2.31
2023-02-19T21:00:55.162Z,2.30
2023-02-19T21:03:40.298Z,2.25
2023-02-19T21:06:25.369Z,2.21
2023-02-19T21:09:10.738Z,2.17
2023-02-19T21:11:56.114Z,2.15
2023-02-19T21:14:41.140Z,2.12
2023-02-19T21:17:26.272Z,2.09
2023-02-19T21:20:12.170Z,2.07
2023-02-19T21:22:57.442Z,2.05
2023-02-19T21:25:42.684Z,2.01
2023-02-19T21:28:27.848Z,2.01
2023-02-19T21:31:13.113Z,1.98
2023-02-19T21:33:58.514Z,1.96
2023-02-19T21:36:44.135Z,1.95
2023-02-19T21:39:30.575Z,1.91
2023-02-19T21:42:15.440Z,1.88
2023-02-19T21:45:00.392Z,1.87
2023-02-19T21:47:45.537Z,1.85
2023-02-19T21:50:30.383Z,1.81
2023-02-19T21:53:15.801Z,1.86
2023-02-19T21:56:00.807Z,1.86
2023-02-19T21:58:46.122Z,1.82
2023-02-19T22:01:39.188Z,1.77
2023-02-19T22:04:24.445Z,1.80
2023-02-19T22:07:09.724Z,1.82
2023-02-19T22:09:54.925Z,1.84
2023-02-19T22:12:39.863Z,1.81
2023-02-19T22:15:24.893Z,1.78
2023-02-19T22:18:09.809Z,1.80
2023-02-19T22:20:55.033Z,1.81
2023-02-19T22:23:43.709Z,1.80
2023-02-19T22:26:31.791Z,1.79
2023-02-19T22:29:17.067Z,1.80
2023-02-19T22:32:02.563Z,1.81
2023-02-19T22:34:47.690Z,1.76
2023-02-19T22:37:32.903Z,1.69
2023-02-19T22:40:20.318Z,1.65
2023-02-19T22:43:05.588Z,1.63
2023-02-19T22:45:50.824Z,1.64
2023-02-19T22:48:36.082Z,1.72
2023-02-19T22:51:23.448Z,1.71
2023-02-19T22:54:09.074Z,1.68
2023-02-19T22:56:55.279Z,1.72
2023-02-19T22:59:40.505Z,1.72
2023-02-19T23:02:25.677Z,1.72
2023-02-19T23:05:10.919Z,1.74
2023-02-19T23:07:55.836Z,1.80
2023-02-19T23:10:40.988Z,1.83
2023-02-19T23:13:26.177Z,1.84
2023-02-19T23:16:12.097Z,1.82
2023-02-19T23:18:57.242Z,1.84
2023-02-19T23:21:44.034Z,1.87
2023-02-19T23:24:29.353Z,1.90
2023-02-19T23:27:14.507Z,1.92
2023-02-19T23:29:59.701Z,1.92
2023-02-19T23:32:44.809Z,1.91
2023-02-19T23:35:31.224Z,1.90
2023-02-19T23:38:16.597Z,1.89
2023-02-19T23:41:02.168Z,1.91
2023-02-19T23:43:49.714Z,1.83
2023-02-19T23:46:34.951Z,1.80
2023-02-19T23:49:20.619Z,1.69
2023-02-19T23:52:05.816Z,1.54
2023-02-19T23:54:50.941Z,1.48
2023-02-19T23:57:36.064Z,1.46
